Time;durP1;ratioP1;P1;durP2;ratioP2;P2;SDS_P1;SDS_P2;PMS_P1;PMS_P2;Temp;Humidity;BMP_temperature;BMP_pressure;BME280_temperature;BME280_humidity;BME280_pressure;Samples;Min_cycle;Max_cycle;Signal;HPM_P1;HPM_P2
2021/07/15 00:00:49;;;;;;;0.80;0.80;;;;;;;;;;4998881;28;20038;-81
2021/07/15 00:03:19;;;;;;;0.70;0.70;;;;;;;;;;4998167;28;20117;-82
2021/07/15 00:05:46;;;;;;;0.70;0.70;;;;;;;;;;4999627;28;20038;-81
2021/07/15 00:08:15;;;;;;;0.52;0.52;;;;;;;;;;4996221;28;20118;-79
2021/07/15 00:10:44;;;;;;;0.75;0.75;;;;;;;;;;5011952;28;20088;-78
2021/07/15 00:13:10;;;;;;;0.70;0.70;;;;;;;;;;5014580;28;20566;-81
2021/07/15 00:15:38;;;;;;;0.82;0.60;;;;;;;;;;4998401;28;20041;-81
2021/07/15 00:18:06;;;;;;;0.60;0.60;;;;;;;;;;4997617;28;20133;-81
2021/07/15 00:20:34;;;;;;;0.98;0.90;;;;;;;;;;5009258;28;20025;-82
2021/07/15 00:23:00;;;;;;;0.85;0.80;;;;;;;;;;5017478;28;20026;-83
2021/07/15 00:25:26;;;;;;;0.95;0.82;;;;;;;;;;5010378;28;20034;-83
2021/07/15 00:27:52;;;;;;;1.00;1.00;;;;;;;;;;4996502;28;20038;-84
2021/07/15 00:30:18;;;;;;;0.70;0.70;;;;;;;;;;4997613;28;20027;-82
2021/07/15 00:32:45;;;;;;;0.57;0.57;;;;;;;;;;4997266;28;20030;-83
2021/07/15 00:35:11;;;;;;;0.80;0.50;;;;;;;;;;4999470;28;20035;-81
2021/07/15 00:37:37;;;;;;;2.15;0.73;;;;;;;;;;4997159;28;20061;-82
2021/07/15 00:40:05;;;;;;;0.50;0.50;;;;;;;;;;4997824;28;20503;-81
2021/07/15 00:42:32;;;;;;;1.02;0.82;;;;;;;;;;4995729;28;20089;-83
2021/07/15 00:44:58;;;;;;;0.80;0.50;;;;;;;;;;4995996;28;20033;-82
2021/07/15 00:47:24;;;;;;;0.95;0.70;;;;;;;;;;4996416;28;20466;-82
2021/07/15 00:49:50;;;;;;;0.65;0.65;;;;;;;;;;5008356;28;20480;-83
2021/07/15 00:52:16;;;;;;;0.60;0.60;;;;;;;;;;4997475;28;20038;-82
2021/07/15 00:54:42;;;;;;;0.70;0.70;;;;;;;;;;4995638;28;20046;-82
2021/07/15 00:57:09;;;;;;;1.40;0.75;;;;;;;;;;4997616;28;20057;-83
2021/07/15 00:59:35;;;;;;;0.40;0.40;;;;;;;;;;4996402;28;20026;-83
2021/07/15 01:02:01;;;;;;;0.52;0.52;;;;;;;;;;4999931;28;20030;-83
2021/07/15 01:04:28;;;;;;;0.95;0.50;;;;;;;;;;4999191;28;20396;-83
2021/07/15 01:06:54;;;;;;;0.30;0.30;;;;;;;;;;4996160;28;20036;-84
2021/07/15 01:09:21;;;;;;;1.05;0.60;;;;;;;;;;4996891;28;20077;-84
2021/07/15 01:11:49;;;;;;;0.38;0.30;;;;;;;;;;4996643;28;20486;-83
2021/07/15 01:14:22;;;;;;;0.40;0.38;;;;;;;;;;4997224;28;20019;-82
2021/07/15 01:17:00;;;;;;;0.40;0.40;;;;;;;;;;4995477;28;20483;-82
2021/07/15 01:19:29;;;;;;;0.70;0.30;;;;;;;;;;5009603;28;20022;-83
2021/07/15 01:22:05;;;;;;;2.15;0.40;;;;;;;;;;4998347;28;20037;-83
2021/07/15 01:24:43;;;;;;;0.73;0.55;;;;;;;;;;4996538;28;20119;-82
2021/07/15 01:27:27;;;;;;;2.58;0.90;;;;;;;;;;4996612;28;20084;-83
2021/07/15 01:29:59;;;;;;;0.50;0.30;;;;;;;;;;4995403;28;20460;-83
2021/07/15 01:32:25;;;;;;;;;;;;;;;;;;4996148;28;20035;-83
2021/07/15 01:34:53;;;;;;;0.35;0.35;;;;;;;;;;5003776;28;19917;-83
2021/07/15 01:37:19;;;;;;;0.35;0.30;;;;;;;;;;5000502;28;20054;-83
2021/07/15 01:39:47;;;;;;;0.40;0.40;;;;;;;;;;5000842;28;20030;-83
2021/07/15 01:42:14;;;;;;;0.52;0.52;;;;;;;;;;5000865;28;20510;-84
2021/07/15 01:44:44;;;;;;;0.95;0.47;;;;;;;;;;5002202;28;20088;-82
2021/07/15 01:47:10;;;;;;;0.30;0.30;;;;;;;;;;5000622;28;20034;-84
2021/07/15 01:49:36;;;;;;;0.98;0.35;;;;;;;;;;5031312;28;20418;-82
2021/07/15 01:52:03;;;;;;;0.50;0.32;;;;;;;;;;5001627;28;20033;-81
2021/07/15 01:54:30;;;;;;;0.50;0.50;;;;;;;;;;5001532;28;20489;-82
2021/07/15 01:56:57;;;;;;;0.20;0.20;;;;;;;;;;5001129;28;20026;-83
2021/07/15 01:59:26;;;;;;;0.93;0.40;;;;;;;;;;5002646;28;20037;-81
2021/07/15 02:01:52;;;;;;;0.35;0.35;;;;;;;;;;5000491;28;20098;-83
2021/07/15 02:04:18;;;;;;;0.35;0.32;;;;;;;;;;4999920;28;20091;-83
2021/07/15 02:06:47;;;;;;;0.32;0.32;;;;;;;;;;5000935;28;20113;-83
2021/07/15 02:09:14;;;;;;;0.40;0.40;;;;;;;;;;4998703;28;20045;-83
2021/07/15 02:11:40;;;;;;;0.30;0.30;;;;;;;;;;4998961;28;20030;-83
2021/07/15 02:14:12;;;;;;;0.35;0.35;;;;;;;;;;4998864;28;20018;-83
2021/07/15 02:16:40;;;;;;;0.65;0.30;;;;;;;;;;4999172;28;20018;-83
2021/07/15 02:19:07;;;;;;;0.20;0.20;;;;;;;;;;5011281;28;20031;-80
2021/07/15 02:21:35;;;;;;;0.25;0.25;;;;;;;;;;5009922;28;20021;-82
2021/07/15 02:24:01;;;;;;;0.20;0.20;;;;;;;;;;5000980;28;20037;-81
2021/07/15 02:26:28;;;;;;;0.32;0.32;;;;;;;;;;5001477;28;20030;-81
2021/07/15 02:28:54;;;;;;;0.30;0.30;;;;;;;;;;5001442;28;20048;-84
2021/07/15 02:31:26;;;;;;;0.20;0.20;;;;;;;;;;5004118;28;20034;-84
2021/07/15 02:33:56;;;;;;;0.38;0.38;;;;;;;;;;5001635;28;20027;-82
2021/07/15 02:36:23;;;;;;;0.40;0.40;;;;;;;;;;5001632;28;20109;-82
2021/07/15 02:38:52;;;;;;;0.20;0.20;;;;;;;;;;4999083;28;20426;-82
2021/07/15 02:41:18;;;;;;;0.40;0.40;;;;;;;;;;4999956;28;20038;-81
2021/07/15 02:43:44;;;;;;;1.35;0.40;;;;;;;;;;4998980;28;20044;-82
2021/07/15 02:46:10;;;;;;;0.30;0.30;;;;;;;;;;5001723;28;20133;-81
2021/07/15 02:48:36;;;;;;;0.30;0.30;;;;;;;;;;5011431;28;20026;-82
2021/07/15 02:51:02;;;;;;;0.28;0.28;;;;;;;;;;5025774;28;20037;-81
2021/07/15 02:53:28;;;;;;;0.20;0.20;;;;;;;;;;5020900;28;20037;-82
2021/07/15 02:56:01;;;;;;;0.30;0.30;;;;;;;;;;5017492;28;20390;-82
2021/07/15 02:58:32;;;;;;;0.35;0.35;;;;;;;;;;5018135;28;20523;-83
2021/07/15 03:01:02;;;;;;;0.30;0.30;;;;;;;;;;5007370;28;20026;-81
2021/07/15 03:03:47;;;;;;;0.20;0.20;;;;;;;;;;5001208;28;20035;-82
2021/07/15 03:06:14;;;;;;;0.30;0.30;;;;;;;;;;4997755;28;20117;-82
2021/07/15 03:08:50;;;;;;;2.00;0.30;;;;;;;;;;4998293;28;20027;-83
2021/07/15 03:11:16;;;;;;;0.38;0.38;;;;;;;;;;4999567;28;20030;-83
2021/07/15 03:13:44;;;;;;;0.75;0.73;;;;;;;;;;5003451;28;20030;-81
2021/07/15 03:16:11;;;;;;;0.40;0.40;;;;;;;;;;5005282;28;20523;-82
2021/07/15 03:18:41;;;;;;;0.28;0.28;;;;;;;;;;5003316;28;20384;-83
2021/07/15 03:21:07;;;;;;;0.25;0.25;;;;;;;;;;5012593;28;20031;-82
2021/07/15 03:23:36;;;;;;;0.30;0.30;;;;;;;;;;5009814;28;20023;-82
2021/07/15 03:26:02;;;;;;;0.35;0.20;;;;;;;;;;5009963;28;20054;-81
2021/07/15 03:28:31;;;;;;;0.63;0.63;;;;;;;;;;5010422;28;20081;-81
2021/07/15 03:31:01;;;;;;;0.20;0.20;;;;;;;;;;5004584;28;20010;-82
2021/07/15 03:33:28;;;;;;;0.40;0.30;;;;;;;;;;5002364;28;20062;-83
2021/07/15 03:35:54;;;;;;;0.45;0.22;;;;;;;;;;5000476;28;20049;-83
2021/07/15 03:38:20;;;;;;;2.30;0.47;;;;;;;;;;4999039;28;20026;-83
2021/07/15 03:40:48;;;;;;;1.20;0.20;;;;;;;;;;5002649;28;20041;-83
2021/07/15 03:43:14;;;;;;;0.25;0.25;;;;;;;;;;5005297;28;20026;-84
2021/07/15 03:45:42;;;;;;;0.13;0.13;;;;;;;;;;5006700;28;20118;-83
2021/07/15 03:48:10;;;;;;;0.20;0.20;;;;;;;;;;5000556;28;20431;-83
2021/07/15 03:50:36;;;;;;;0.10;0.10;;;;;;;;;;5011633;28;20105;-82
2021/07/15 03:53:04;;;;;;;0.13;0.13;;;;;;;;;;5022906;28;20101;-83
2021/07/15 03:55:41;;;;;;;0.35;0.30;;;;;;;;;;5021456;28;20022;-83
2021/07/15 03:58:09;;;;;;;0.40;0.13;;;;;;;;;;5024992;28;20112;-82
2021/07/15 04:00:37;;;;;;;0.30;0.30;;;;;;;;;;5027756;28;20354;-83
2021/07/15 04:03:04;;;;;;;0.10;0.10;;;;;;;;;;5029781;28;20060;-81
2021/07/15 04:05:31;;;;;;;0.32;0.30;;;;;;;;;;5027180;28;20094;-83
2021/07/15 04:07:59;;;;;;;0.32;0.20;;;;;;;;;;5016990;22;20453;-80
2021/07/15 04:10:35;;;;;;;0.93;0.22;;;;;;;;;;5021365;28;20025;-80
2021/07/15 04:13:02;;;;;;;0.25;0.25;;;;;;;;;;5002776;28;20125;-81
2021/07/15 04:15:36;;;;;;;0.40;0.40;;;;;;;;;;5019011;28;20030;-82
2021/07/15 04:18:03;;;;;;;0.20;0.20;;;;;;;;;;4998870;28;20031;-81
2021/07/15 04:20:29;;;;;;;0.20;0.20;;;;;;;;;;4998077;28;20034;-79
2021/07/15 04:22:58;;;;;;;1.25;0.20;;;;;;;;;;5004678;28;20101;-81
2021/07/15 04:25:24;;;;;;;0.30;0.30;;;;;;;;;;5010042;28;20033;-80
2021/07/15 04:27:53;;;;;;;0.22;0.22;;;;;;;;;;5022461;28;20116;-80
2021/07/15 04:30:19;;;;;;;0.85;0.30;;;;;;;;;;5004849;28;20129;-81
2021/07/15 04:33:00;;;;;;;1.05;0.35;;;;;;;;;;5020411;28;20025;-81
2021/07/15 04:35:28;;;;;;;0.22;0.20;;;;;;;;;;5022747;28;20254;-80
2021/07/15 04:37:54;;;;;;;0.30;0.30;;;;;;;;;;5020866;28;20033;-80
2021/07/15 04:40:25;;;;;;;0.32;0.30;;;;;;;;;;5025671;28;20028;-79
2021/07/15 04:43:00;;;;;;;0.30;0.30;;;;;;;;;;5018361;28;20026;-80
2021/07/15 04:45:27;;;;;;;0.47;0.35;;;;;;;;;;5001268;28;20022;-80
2021/07/15 04:47:54;;;;;;;0.30;0.30;;;;;;;;;;5019429;28;20057;-81
2021/07/15 04:50:22;;;;;;;0.25;0.25;;;;;;;;;;5019549;28;20034;-81
2021/07/15 04:52:49;;;;;;;0.30;0.30;;;;;;;;;;5022109;28;20079;-81
2021/07/15 04:55:17;;;;;;;0.43;0.43;;;;;;;;;;5005789;28;20029;-80
2021/07/15 04:57:44;;;;;;;0.28;0.28;;;;;;;;;;5021919;28;20558;-81
2021/07/15 05:00:11;;;;;;;0.52;0.30;;;;;;;;;;5025351;28;20125;-80
2021/07/15 05:02:38;;;;;;;0.38;0.38;;;;;;;;;;5008279;28;20022;-79
2021/07/15 05:05:08;;;;;;;0.35;0.35;;;;;;;;;;5006496;28;20536;-81
2021/07/15 05:07:37;;;;;;;0.30;0.30;;;;;;;;;;5021797;28;20084;-82
2021/07/15 05:10:07;;;;;;;0.32;0.32;;;;;;;;;;5009763;28;20030;-80
2021/07/15 05:12:33;;;;;;;0.40;0.40;;;;;;;;;;5025467;28;20093;-82
2021/07/15 05:15:01;;;;;;;0.65;0.40;;;;;;;;;;5008686;28;20030;-82
2021/07/15 05:17:27;;;;;;;0.50;0.30;;;;;;;;;;5007092;28;20423;-82
2021/07/15 05:19:53;;;;;;;1.15;0.60;;;;;;;;;;5025191;28;20137;-82
2021/07/15 05:22:19;;;;;;;0.50;0.50;;;;;;;;;;5025735;28;20118;-82
2021/07/15 05:24:48;;;;;;;0.85;0.40;;;;;;;;;;5010399;28;20014;-79
2021/07/15 05:27:17;;;;;;;0.70;0.70;;;;;;;;;;5021601;28;20037;-79
2021/07/15 05:29:43;;;;;;;1.23;0.52;;;;;;;;;;5009244;28;20022;-79
2021/07/15 05:32:09;;;;;;;0.30;0.30;;;;;;;;;;5020547;28;20018;-80
2021/07/15 05:34:43;;;;;;;0.57;0.57;;;;;;;;;;5037490;28;20013;-80
2021/07/15 05:37:10;;;;;;;1.23;0.70;;;;;;;;;;5020550;28;20033;-82
2021/07/15 05:39:38;;;;;;;1.08;0.65;;;;;;;;;;5038854;28;20021;-80
2021/07/15 05:42:07;;;;;;;1.63;0.90;;;;;;;;;;5038702;28;20018;-81
2021/07/15 05:44:37;;;;;;;1.48;0.55;;;;;;;;;;5015556;28;20121;-81
2021/07/15 05:47:03;;;;;;;1.60;0.57;;;;;;;;;;5010194;28;20033;-81
2021/07/15 05:49:29;;;;;;;1.27;0.60;;;;;;;;;;5027640;28;20025;-82
2021/07/15 05:51:55;;;;;;;1.30;0.70;;;;;;;;;;5024382;28;20088;-80
2021/07/15 05:54:22;;;;;;;1.08;0.80;;;;;;;;;;5003069;28;20029;-80
2021/07/15 05:56:48;;;;;;;1.88;0.88;;;;;;;;;;5021112;28;20062;-80
2021/07/15 05:59:14;;;;;;;2.40;0.63;;;;;;;;;;5022889;28;20018;-80
2021/07/15 06:01:41;;;;;;;1.33;0.80;;;;;;;;;;5006644;28;20034;-83
2021/07/15 06:04:07;;;;;;;0.80;0.68;;;;;;;;;;5007405;28;20037;-80
2021/07/15 06:06:36;;;;;;;0.75;0.65;;;;;;;;;;5024237;28;20064;-81
2021/07/15 06:09:02;;;;;;;1.52;0.70;;;;;;;;;;5008921;28;20036;-81
2021/07/15 06:11:28;;;;;;;0.50;0.50;;;;;;;;;;5024374;28;20030;-82
2021/07/15 06:13:54;;;;;;;0.90;0.70;;;;;;;;;;5006235;28;20085;-79
2021/07/15 06:16:20;;;;;;;0.80;0.80;;;;;;;;;;5023864;28;20080;-82
2021/07/15 06:18:58;;;;;;;1.98;0.70;;;;;;;;;;5025343;28;20390;-81
2021/07/15 06:21:24;;;;;;;0.60;0.60;;;;;;;;;;5007226;28;20093;-78
2021/07/15 06:23:50;;;;;;;1.00;0.70;;;;;;;;;;5029701;28;20053;-79
2021/07/15 06:26:16;;;;;;;0.60;0.43;;;;;;;;;;5026791;28;20026;-81
2021/07/15 06:28:42;;;;;;;1.08;0.55;;;;;;;;;;5028644;28;20065;-81
2021/07/15 06:31:11;;;;;;;0.95;0.40;;;;;;;;;;5024960;28;20041;-81
2021/07/15 06:33:38;;;;;;;1.13;0.50;;;;;;;;;;5007051;28;20390;-81
2021/07/15 06:36:06;;;;;;;1.35;0.73;;;;;;;;;;5024699;28;20028;-80
2021/07/15 06:38:33;;;;;;;0.98;0.60;;;;;;;;;;5006934;28;20022;-81
2021/07/15 06:41:00;;;;;;;2.33;0.60;;;;;;;;;;5007729;28;20430;-81
2021/07/15 06:43:26;;;;;;;3.28;0.98;;;;;;;;;;5007180;28;20079;-80
2021/07/15 06:45:53;;;;;;;0.50;0.50;;;;;;;;;;5036814;28;20022;-80
2021/07/15 06:48:19;;;;;;;0.70;0.70;;;;;;;;;;5034351;28;20086;-80
2021/07/15 06:50:46;;;;;;;0.60;0.60;;;;;;;;;;5034654;28;20034;-81
2021/07/15 06:53:12;;;;;;;2.38;0.73;;;;;;;;;;5031930;28;20028;-81
2021/07/15 06:55:39;;;;;;;1.33;0.57;;;;;;;;;;5009087;28;20022;-81
2021/07/15 06:58:08;;;;;;;0.55;0.55;;;;;;;;;;5004431;28;20018;-81
2021/07/15 07:00:35;;;;;;;1.35;1.10;;;;;;;;;;5021877;28;20038;-82
2021/07/15 07:03:04;;;;;;;0.63;0.63;;;;;;;;;;5025166;28;20074;-82
2021/07/15 07:05:30;;;;;;;0.88;0.73;;;;;;;;;;5006820;28;20029;-82
2021/07/15 07:07:56;;;;;;;0.65;0.50;;;;;;;;;;5025736;28;20041;-82
2021/07/15 07:10:22;;;;;;;0.40;0.40;;;;;;;;;;5025552;28;20364;-81
2021/07/15 07:12:51;;;;;;;0.50;0.50;;;;;;;;;;5026888;28;20084;-81
2021/07/15 07:15:18;;;;;;;0.45;0.45;;;;;;;;;;5007827;28;20036;-82
2021/07/15 07:17:45;;;;;;;0.40;0.40;;;;;;;;;;5007402;28;20109;-81
2021/07/15 07:20:12;;;;;;;1.58;0.63;;;;;;;;;;5022787;28;20466;-82
2021/07/15 07:22:39;;;;;;;0.57;0.57;;;;;;;;;;5024986;28;20030;-82
2021/07/15 07:25:06;;;;;;;0.50;0.50;;;;;;;;;;5009010;28;20046;-84
2021/07/15 07:27:36;;;;;;;0.50;0.40;;;;;;;;;;5008375;28;20026;-81
2021/07/15 07:30:03;;;;;;;0.52;0.52;;;;;;;;;;5005107;28;20026;-81
2021/07/15 07:32:29;;;;;;;0.40;0.40;;;;;;;;;;5022032;28;20079;-80
2021/07/15 07:34:55;;;;;;;1.55;0.70;;;;;;;;;;5023390;28;20077;-81
2021/07/15 07:37:21;;;;;;;0.45;0.45;;;;;;;;;;5005230;28;20093;-82
2021/07/15 07:39:47;;;;;;;0.50;0.50;;;;;;;;;;5025977;28;20022;-81
2021/07/15 07:42:13;;;;;;;0.50;0.50;;;;;;;;;;5033194;28;20061;-81
2021/07/15 07:44:40;;;;;;;1.38;0.55;;;;;;;;;;5032517;28;20034;-81
2021/07/15 07:47:06;;;;;;;0.43;0.43;;;;;;;;;;5025508;28;20026;-83
2021/07/15 07:49:32;;;;;;;0.40;0.40;;;;;;;;;;5009226;28;20053;-83
2021/07/15 07:51:58;;;;;;;0.52;0.40;;;;;;;;;;5008484;28;20125;-82
2021/07/15 07:54:24;;;;;;;1.27;0.50;;;;;;;;;;5015325;28;20026;-83
2021/07/15 07:56:50;;;;;;;1.08;0.70;;;;;;;;;;5030987;28;20038;-82
2021/07/15 07:59:16;;;;;;;0.60;0.60;;;;;;;;;;5026304;28;20102;-81
2021/07/15 08:01:42;;;;;;;1.33;0.77;;;;;;;;;;5027088;28;20044;-81
2021/07/15 08:04:09;;;;;;;0.80;0.55;;;;;;;;;;5008974;28;20029;-81
2021/07/15 08:06:36;;;;;;;0.45;0.45;;;;;;;;;;5008532;28;20060;-82
2021/07/15 08:09:12;;;;;;;0.43;0.43;;;;;;;;;;5026389;28;20093;-83
2021/07/15 08:11:39;;;;;;;0.40;0.40;;;;;;;;;;5008607;28;20378;-84
2021/07/15 08:14:06;;;;;;;0.47;0.47;;;;;;;;;;5008082;28;20022;-83
2021/07/15 08:16:32;;;;;;;0.75;0.75;;;;;;;;;;5008191;28;20033;-80
2021/07/15 08:19:00;;;;;;;0.68;0.68;;;;;;;;;;5025920;28;20030;-80
2021/07/15 08:21:30;;;;;;;0.60;0.60;;;;;;;;;;5004987;28;20046;-83
2021/07/15 08:23:57;;;;;;;2.17;0.57;;;;;;;;;;5028996;28;20057;-80
2021/07/15 08:26:23;;;;;;;0.68;0.40;;;;;;;;;;5031181;28;20022;-82
2021/07/15 08:28:50;;;;;;;2.25;0.70;;;;;;;;;;5032329;28;20028;-81
2021/07/15 08:31:20;;;;;;;0.82;0.70;;;;;;;;;;5030066;28;20067;-83
2021/07/15 08:33:46;;;;;;;0.47;0.47;;;;;;;;;;5008891;28;20101;-80
2021/07/15 08:36:12;;;;;;;0.50;0.50;;;;;;;;;;5005989;28;20022;-83
2021/07/15 08:38:40;;;;;;;1.10;0.50;;;;;;;;;;5024169;28;20064;-80
2021/07/15 08:41:06;;;;;;;0.80;0.60;;;;;;;;;;5024028;28;20018;-82
2021/07/15 08:43:33;;;;;;;0.95;0.80;;;;;;;;;;5005929;28;20038;-82
2021/07/15 08:46:00;;;;;;;1.17;1.08;;;;;;;;;;5024300;28;20156;-82
2021/07/15 08:48:28;;;;;;;2.28;0.70;;;;;;;;;;5022428;28;20079;-82
2021/07/15 08:50:54;;;;;;;0.63;0.63;;;;;;;;;;5022934;28;20018;-81
2021/07/15 08:53:21;;;;;;;1.65;0.60;;;;;;;;;;5022714;28;20041;-81
2021/07/15 08:58:33;;;;;;;1.95;0.70;;;;;;;;;;5021787;28;20045;-81
2021/07/15 09:01:00;;;;;;;0.90;0.70;;;;;;;;;;5007097;28;20080;-81
2021/07/15 09:03:26;;;;;;;0.95;0.50;;;;;;;;;;5011528;28;20050;-81
2021/07/15 09:06:02;;;;;;;0.88;0.70;;;;;;;;;;5091655;23;20033;-81
2021/07/15 09:08:34;;;;;;;1.45;0.60;;;;;;;;;;5014005;28;20034;-80
2021/07/15 09:11:02;;;;;;;0.75;0.73;;;;;;;;;;5007073;28;20053;-81
2021/07/15 09:13:28;;;;;;;0.65;0.50;;;;;;;;;;5006126;28;20027;-81
2021/07/15 09:15:54;;;;;;;0.68;0.60;;;;;;;;;;5002878;28;20036;-80
2021/07/15 09:18:20;;;;;;;0.60;0.60;;;;;;;;;;5001753;28;20029;-83
2021/07/15 09:20:47;;;;;;;0.95;0.65;;;;;;;;;;5004444;28;20018;-83
2021/07/15 09:23:15;;;;;;;0.70;0.70;;;;;;;;;;5004247;28;20086;-81
2021/07/15 09:25:41;;;;;;;0.60;0.60;;;;;;;;;;5004081;28;20026;-82
2021/07/15 09:28:07;;;;;;;1.08;0.52;;;;;;;;;;5003144;28;20060;-81
2021/07/15 09:30:34;;;;;;;0.52;0.52;;;;;;;;;;5004022;28;20034;-82
2021/07/15 09:33:01;;;;;;;1.20;1.10;;;;;;;;;;5005503;28;20495;-81
2021/07/15 09:35:38;;;;;;;0.68;0.68;;;;;;;;;;5013516;28;20065;-80
2021/07/15 09:38:18;;;;;;;1.38;0.50;;;;;;;;;;5014098;28;20033;-81
2021/07/15 09:40:48;;;;;;;2.03;0.73;;;;;;;;;;5007356;28;20019;-81
2021/07/15 09:43:19;;;;;;;0.77;0.60;;;;;;;;;;5011884;28;20180;-80
2021/07/15 09:45:45;;;;;;;1.48;0.88;;;;;;;;;;5013442;28;20082;-80
2021/07/15 09:48:15;;;;;;;0.82;0.40;;;;;;;;;;5010546;28;20034;-81
2021/07/15 09:50:42;;;;;;;1.27;0.82;;;;;;;;;;5006975;28;20030;-81
2021/07/15 09:53:24;;;;;;;1.42;0.75;;;;;;;;;;5004707;28;20034;-81
2021/07/15 09:55:59;;;;;;;0.57;0.50;;;;;;;;;;5008492;28;20030;-82
2021/07/15 09:58:25;;;;;;;1.02;0.52;;;;;;;;;;5009749;28;20030;-83
2021/07/15 10:00:51;;;;;;;0.40;0.40;;;;;;;;;;5008146;28;20052;-82
2021/07/15 10:03:18;;;;;;;1.83;0.77;;;;;;;;;;5008406;28;20442;-82
2021/07/15 10:05:54;;;;;;;0.63;0.55;;;;;;;;;;5012755;28;20030;-81
2021/07/15 10:08:31;;;;;;;0.50;0.50;;;;;;;;;;5075543;22;20030;-87
2021/07/15 10:11:12;;;;;;;1.80;0.40;;;;;;;;;;5027118;28;20469;-87
2021/07/15 10:13:38;;;;;;;0.50;0.50;;;;;;;;;;5030821;28;20033;-86
2021/07/15 10:16:08;;;;;;;0.60;0.60;;;;;;;;;;5027015;28;20085;-85
2021/07/15 10:18:43;;;;;;;0.70;0.70;;;;;;;;;;5023554;28;20120;-85
2021/07/15 10:21:10;;;;;;;0.85;0.65;;;;;;;;;;5023537;28;20026;-85
2021/07/15 10:23:37;;;;;;;0.47;0.40;;;;;;;;;;5026314;28;20107;-85
2021/07/15 10:26:04;;;;;;;0.38;0.32;;;;;;;;;;5025393;28;20041;-84
2021/07/15 10:28:31;;;;;;;0.60;0.52;;;;;;;;;;5032054;28;20054;-84
2021/07/15 10:30:59;;;;;;;0.52;0.50;;;;;;;;;;5031536;28;20034;-86
2021/07/15 10:33:25;;;;;;;0.45;0.45;;;;;;;;;;5022294;28;20026;-85
2021/07/15 10:35:51;;;;;;;0.50;0.43;;;;;;;;;;5019483;28;20033;-86
2021/07/15 10:38:19;;;;;;;0.30;0.30;;;;;;;;;;5023089;28;20037;-85
2021/07/15 10:40:45;;;;;;;0.40;0.40;;;;;;;;;;5016456;28;20038;-85
2021/07/15 10:43:11;;;;;;;0.22;0.22;;;;;;;;;;5015708;28;20054;-85
2021/07/15 10:45:38;;;;;;;0.40;0.40;;;;;;;;;;5020545;28;20508;-83
2021/07/15 10:48:04;;;;;;;1.10;0.30;;;;;;;;;;5004692;28;20022;-86
2021/07/15 10:50:31;;;;;;;0.28;0.28;;;;;;;;;;5017534;28;20026;-84
2021/07/15 10:52:57;;;;;;;0.35;0.35;;;;;;;;;;5025333;28;20032;-83
2021/07/15 10:55:25;;;;;;;0.65;0.60;;;;;;;;;;5024007;28;20034;-84
2021/07/15 10:57:51;;;;;;;0.28;0.28;;;;;;;;;;5025119;28;20097;-86
2021/07/15 11:00:21;;;;;;;0.70;0.70;;;;;;;;;;5024543;28;20025;-85
2021/07/15 11:02:47;;;;;;;0.50;0.50;;;;;;;;;;5024292;28;20022;-85
2021/07/15 11:05:26;;;;;;;0.70;0.60;;;;;;;;;;5025666;28;20022;-85
2021/07/15 11:07:55;;;;;;;0.45;0.45;;;;;;;;;;5025332;28;20141;-84
2021/07/15 11:10:22;;;;;;;2.08;0.60;;;;;;;;;;5035671;28;20013;-84
2021/07/15 11:12:59;;;;;;;0.90;0.50;;;;;;;;;;5009550;28;20026;-85
2021/07/15 11:15:44;;;;;;;0.30;0.30;;;;;;;;;;5012977;28;20489;-85
2021/07/15 11:18:30;;;;;;;0.63;0.50;;;;;;;;;;5025830;28;20030;-85
2021/07/15 11:21:16;;;;;;;0.50;0.50;;;;;;;;;;5023887;28;20038;-84
2021/07/15 11:23:42;;;;;;;0.43;0.30;;;;;;;;;;5019607;28;20505;-87
2021/07/15 11:26:27;;;;;;;0.40;0.40;;;;;;;;;;5021790;28;20052;-84
2021/07/15 11:28:54;;;;;;;2.40;0.60;;;;;;;;;;5017138;28;20359;-85
2021/07/15 11:31:52;;;;;;;0.60;0.30;;;;;;;;;;5020539;28;20033;-83
2021/07/15 11:34:38;;;;;;;2.55;0.40;;;;;;;;;;4997313;28;20035;-87
2021/07/15 11:37:23;;;;;;;0.32;0.32;;;;;;;;;;5004876;28;20053;-86
2021/07/15 11:39:49;;;;;;;0.38;0.38;;;;;;;;;;5005735;28;20479;-86
2021/07/15 11:42:21;;;;;;;2.35;0.38;;;;;;;;;;5005442;28;20097;-85
2021/07/15 11:45:06;;;;;;;0.57;0.38;;;;;;;;;;5006613;28;20085;-86
2021/07/15 11:47:50;;;;;;;0.40;0.40;;;;;;;;;;5003588;28;20045;-85
2021/07/15 11:50:28;;;;;;;0.40;0.40;;;;;;;;;;5000668;28;20026;-86
2021/07/15 11:53:13;;;;;;;0.70;0.50;;;;;;;;;;5003021;28;20027;-86
2021/07/15 11:55:40;;;;;;;0.30;0.30;;;;;;;;;;5014055;28;20034;-86
2021/07/15 11:58:06;;;;;;;0.73;0.38;;;;;;;;;;5013461;28;20034;-87
2021/07/15 12:00:32;;;;;;;1.27;0.30;;;;;;;;;;5014565;28;20035;-86
2021/07/15 12:02:59;;;;;;;0.50;0.40;;;;;;;;;;5001424;28;20062;-86
2021/07/15 12:05:30;;;;;;;0.32;0.30;;;;;;;;;;5001961;28;20064;-84
2021/07/15 12:08:07;;;;;;;0.20;0.20;;;;;;;;;;5004607;28;20023;-85
2021/07/15 12:10:38;;;;;;;0.47;0.20;;;;;;;;;;5012810;28;20029;-83
2021/07/15 12:13:08;;;;;;;1.40;0.40;;;;;;;;;;5021829;28;20546;-83
2021/07/15 12:15:35;;;;;;;0.38;0.38;;;;;;;;;;5006155;28;20089;-84
2021/07/15 12:18:02;;;;;;;0.68;0.28;;;;;;;;;;5006625;28;20034;-86
2021/07/15 12:20:36;;;;;;;0.45;0.20;;;;;;;;;;5033876;28;20021;-85
2021/07/15 12:23:02;;;;;;;0.30;0.30;;;;;;;;;;5024127;28;20041;-85
2021/07/15 12:25:30;;;;;;;0.45;0.45;;;;;;;;;;5010505;28;20028;-84
2021/07/15 12:27:58;;;;;;;0.30;0.30;;;;;;;;;;5022513;28;20034;-84
2021/07/15 12:30:37;;;;;;;0.38;0.38;;;;;;;;;;5002369;28;20495;-84
2021/07/15 12:33:03;;;;;;;0.75;0.35;;;;;;;;;;5003388;28;20057;-84
2021/07/15 12:35:29;;;;;;;0.40;0.40;;;;;;;;;;5003647;28;20034;-84
2021/07/15 12:37:57;;;;;;;0.45;0.40;;;;;;;;;;5001497;28;20023;-85
2021/07/15 12:40:27;;;;;;;0.28;0.28;;;;;;;;;;5019186;28;20078;-84
2021/07/15 12:42:53;;;;;;;0.77;0.43;;;;;;;;;;5018712;28;20408;-83
2021/07/15 12:45:22;;;;;;;1.45;0.40;;;;;;;;;;5025992;28;20041;-86
2021/07/15 12:47:58;;;;;;;0.95;0.68;;;;;;;;;;5028111;28;20049;-82
2021/07/15 12:50:25;;;;;;;1.15;0.47;;;;;;;;;;5032054;28;20073;-84
2021/07/15 12:53:06;;;;;;;0.30;0.30;;;;;;;;;;5028377;28;20416;-85
2021/07/15 12:55:32;;;;;;;2.88;0.50;;;;;;;;;;5026722;28;20047;-85
2021/07/15 12:57:58;;;;;;;0.47;0.30;;;;;;;;;;5025612;28;20199;-86
2021/07/15 13:00:24;;;;;;;3.88;0.60;;;;;;;;;;5024636;28;20053;-86
2021/07/15 13:02:50;;;;;;;0.73;0.30;;;;;;;;;;5026195;28;20038;-84
2021/07/15 13:05:20;;;;;;;0.65;0.55;;;;;;;;;;5029284;28;20026;-84
2021/07/15 13:07:47;;;;;;;1.10;0.40;;;;;;;;;;5024936;28;20261;-86
2021/07/15 13:15:38;;;;;;;0.35;0.35;;;;;;;;;;5023720;28;20037;-86
2021/07/15 13:18:12;;;;;;;0.95;0.30;;;;;;;;;;5019855;28;20090;-83
2021/07/15 13:20:47;;;;;;;0.50;0.40;;;;;;;;;;5031997;28;20018;-85
2021/07/15 13:23:13;;;;;;;1.85;0.40;;;;;;;;;;5045006;28;20054;-82
2021/07/15 13:25:47;;;;;;;0.30;0.30;;;;;;;;;;5042605;28;20033;-85
2021/07/15 13:28:14;;;;;;;0.55;0.40;;;;;;;;;;5038996;28;20071;-83
2021/07/15 13:30:40;;;;;;;1.10;0.35;;;;;;;;;;5031656;28;20390;-85
2021/07/15 13:33:13;;;;;;;0.25;0.25;;;;;;;;;;5019628;28;20422;-86
2021/07/15 13:35:40;;;;;;;0.30;0.30;;;;;;;;;;5022671;28;20026;-83
2021/07/15 13:38:07;;;;;;;0.60;0.35;;;;;;;;;;5000263;28;20042;-85
2021/07/15 13:40:35;;;;;;;0.45;0.30;;;;;;;;;;5011159;28;20100;-86
2021/07/15 13:43:03;;;;;;;0.55;0.55;;;;;;;;;;5030910;28;20454;-87
2021/07/15 13:45:30;;;;;;;0.20;0.20;;;;;;;;;;5031263;28;20025;-87
2021/07/15 13:47:57;;;;;;;0.80;0.50;;;;;;;;;;5035201;28;20030;-85
2021/07/15 13:50:25;;;;;;;0.90;0.40;;;;;;;;;;5040428;28;20005;-85
2021/07/15 13:52:53;;;;;;;0.35;0.30;;;;;;;;;;5033200;28;20033;-87
2021/07/15 13:55:19;;;;;;;0.75;0.50;;;;;;;;;;5027154;28;20408;-84
2021/07/15 13:57:50;;;;;;;0.47;0.47;;;;;;;;;;5030334;28;20033;-86
2021/07/15 14:00:20;;;;;;;0.28;0.28;;;;;;;;;;5047255;28;20087;-85
2021/07/15 14:02:47;;;;;;;0.80;0.40;;;;;;;;;;5022955;28;20101;-85
2021/07/15 14:05:13;;;;;;;0.20;0.20;;;;;;;;;;5029671;28;20095;-86
2021/07/15 14:07:40;;;;;;;0.70;0.30;;;;;;;;;;5029227;28;20109;-86
2021/07/15 14:10:11;;;;;;;0.70;0.38;;;;;;;;;;5043186;28;20045;-86
2021/07/15 14:12:38;;;;;;;0.40;0.40;;;;;;;;;;5020232;28;20044;-86
2021/07/15 14:15:05;;;;;;;0.63;0.40;;;;;;;;;;5029723;28;20096;-87
2021/07/15 14:17:31;;;;;;;0.30;0.30;;;;;;;;;;5037308;28;20397;-85
2021/07/15 14:19:57;;;;;;;0.68;0.30;;;;;;;;;;5037465;28;20061;-84
2021/07/15 14:22:26;;;;;;;0.43;0.43;;;;;;;;;;5039884;28;20030;-85
2021/07/15 14:24:52;;;;;;;0.38;0.30;;;;;;;;;;5017200;28;20399;-86
2021/07/15 14:27:20;;;;;;;0.50;0.50;;;;;;;;;;5018528;28;20037;-84
2021/07/15 14:29:46;;;;;;;0.32;0.32;;;;;;;;;;5026908;28;20181;-86
2021/07/15 14:32:13;;;;;;;0.40;0.40;;;;;;;;;;5019303;28;20041;-85
2021/07/15 14:34:39;;;;;;;0.55;0.47;;;;;;;;;;5038669;28;20021;-85
2021/07/15 14:37:06;;;;;;;0.40;0.40;;;;;;;;;;5049950;28;20022;-85
2021/07/15 14:39:32;;;;;;;1.45;0.50;;;;;;;;;;5031375;28;20057;-86
2021/07/15 14:42:06;;;;;;;0.40;0.40;;;;;;;;;;5041031;28;20040;-87
2021/07/15 14:44:35;;;;;;;0.50;0.47;;;;;;;;;;5020160;28;20030;-85
2021/07/15 14:47:07;;;;;;;0.50;0.50;;;;;;;;;;5010666;28;20050;-85
2021/07/15 14:49:33;;;;;;;1.52;0.50;;;;;;;;;;5033126;28;20025;-84
2021/07/15 14:51:59;;;;;;;0.73;0.30;;;;;;;;;;5031919;28;20034;-85
2021/07/15 14:54:25;;;;;;;0.20;0.20;;;;;;;;;;5020123;28;20057;-84
2021/07/15 14:56:51;;;;;;;0.30;0.30;;;;;;;;;;5014068;28;20050;-85
2021/07/15 14:59:17;;;;;;;1.15;0.35;;;;;;;;;;5011418;28;20053;-84